sensor_id;sensor_type;location;lat;lon;timestamp;temperature;humidity
52107;DHT22;38105;52.968;5.974;2023-11-19T00:02:13;11.80;99.90
52107;DHT22;38105;52.968;5.974;2023-11-19T00:04:39;11.90;99.90
52107;DHT22;38105;52.968;5.974;2023-11-19T00:07:05;12.00;99.90
52107;DHT22;38105;52.968;5.974;2023-11-19T00:09:34;11.30;99.90
52107;DHT22;38105;52.968;5.974;2023-11-19T00:12:05;11.40;99.90
52107;DHT22;38105;52.968;5.974;2023-11-19T00:14:31;11.70;99.90
52107;DHT22;38105;52.968;5.974;2023-11-19T00:16:57;11.90;99.90
52107;DHT22;38105;52.968;5.974;2023-11-19T00:19:22;11.60;99.90
52107;DHT22;38105;52.968;5.974;2023-11-19T00:21:48;11.50;99.90
52107;DHT22;38105;52.968;5.974;2023-11-19T00:24:13;12.00;99.90
52107;DHT22;38105;52.968;5.974;2023-11-19T00:26:42;11.90;99.90
52107;DHT22;38105;52.968;5.974;2023-11-19T00:29:07;12.00;99.90
52107;DHT22;38105;52.968;5.974;2023-11-19T00:31:33;11.30;99.90
52107;DHT22;38105;52.968;5.974;2023-11-19T00:33:58;11.40;99.90
52107;DHT22;38105;52.968;5.974;2023-11-19T00:36:24;11.50;99.90
52107;DHT22;38105;52.968;5.974;2023-11-19T00:38:50;11.70;99.90
52107;DHT22;38105;52.968;5.974;2023-11-19T00:41:18;11.20;99.90
52107;DHT22;38105;52.968;5.974;2023-11-19T00:43:43;11.80;99.90
52107;DHT22;38105;52.968;5.974;2023-11-19T00:46:09;11.80;99.90
52107;DHT22;38105;52.968;5.974;2023-11-19T00:48:36;11.90;99.90
52107;DHT22;38105;52.968;5.974;2023-11-19T00:51:02;11.30;99.90
52107;DHT22;38105;52.968;5.974;2023-11-19T00:53:27;11.40;99.90
52107;DHT22;38105;52.968;5.974;2023-11-19T00:55:53;12.00;99.90
52107;DHT22;38105;52.968;5.974;2023-11-19T00:58:19;12.00;99.90
52107;DHT22;38105;52.968;5.974;2023-11-19T01:00:44;11.90;99.90
52107;DHT22;38105;52.968;5.974;2023-11-19T01:03:10;11.50;99.90
52107;DHT22;38105;52.968;5.974;2023-11-19T01:05:36;11.20;99.90
52107;DHT22;38105;52.968;5.974;2023-11-19T01:08:02;11.10;99.90
52107;DHT22;38105;52.968;5.974;2023-11-19T01:10:30;11.40;99.90
52107;DHT22;38105;52.968;5.974;2023-11-19T01:12:55;11.10;99.90
52107;DHT22;38105;52.968;5.974;2023-11-19T01:15:21;11.80;99.90
52107;DHT22;38105;52.968;5.974;2023-11-19T01:17:48;11.10;99.90
52107;DHT22;38105;52.968;5.974;2023-11-19T01:20:13;12.00;99.90
52107;DHT22;38105;52.968;5.974;2023-11-19T01:22:39;11.40;99.90
52107;DHT22;38105;52.968;5.974;2023-11-19T01:25:06;11.80;99.90
52107;DHT22;38105;52.968;5.974;2023-11-19T01:27:31;11.00;99.90
52107;DHT22;38105;52.968;5.974;2023-11-19T01:29:59;11.70;99.90
52107;DHT22;38105;52.968;5.974;2023-11-19T01:32:27;11.60;99.90
52107;DHT22;38105;52.968;5.974;2023-11-19T01:34:52;11.50;99.90
52107;DHT22;38105;52.968;5.974;2023-11-19T01:37:18;11.80;99.90
52107;DHT22;38105;52.968;5.974;2023-11-19T01:39:44;11.80;99.90
52107;DHT22;38105;52.968;5.974;2023-11-19T01:42:10;11.90;99.90
52107;DHT22;38105;52.968;5.974;2023-11-19T01:44:37;11.50;99.90
52107;DHT22;38105;52.968;5.974;2023-11-19T01:47:03;11.60;99.90
52107;DHT22;38105;52.968;5.974;2023-11-19T01:49:29;11.20;99.90
52107;DHT22;38105;52.968;5.974;2023-11-19T01:51:55;10.90;99.90
52107;DHT22;38105;52.968;5.974;2023-11-19T01:54:22;11.60;99.90
52107;DHT22;38105;52.968;5.974;2023-11-19T01:56:48;10.90;99.90
52107;DHT22;38105;52.968;5.974;2023-11-19T01:59:13;10.90;99.90
52107;DHT22;38105;52.968;5.974;2023-11-19T02:01:40;11.20;99.90
52107;DHT22;38105;52.968;5.974;2023-11-19T02:04:09;11.50;99.90
52107;DHT22;38105;52.968;5.974;2023-11-19T02:06:36;11.50;99.90
52107;DHT22;38105;52.968;5.974;2023-11-19T02:09:02;10.90;99.90
52107;DHT22;38105;52.968;5.974;2023-11-19T02:11:33;10.60;99.90
52107;DHT22;38105;52.968;5.974;2023-11-19T02:13:59;11.30;99.90
52107;DHT22;38105;52.968;5.974;2023-11-19T02:16:24;11.20;99.90
52107;DHT22;38105;52.968;5.974;2023-11-19T02:18:49;11.20;99.90
52107;DHT22;38105;52.968;5.974;2023-11-19T02:21:15;10.50;99.90
52107;DHT22;38105;52.968;5.974;2023-11-19T02:23:42;10.60;99.90
52107;DHT22;38105;52.968;5.974;2023-11-19T02:28:51;11.20;99.90
52107;DHT22;38105;52.968;5.974;2023-11-19T02:31:17;11.30;99.90
52107;DHT22;38105;52.968;5.974;2023-11-19T02:33:44;10.80;99.90
52107;DHT22;38105;52.968;5.974;2023-11-19T02:36:10;10.60;99.90
52107;DHT22;38105;52.968;5.974;2023-11-19T02:38:36;11.00;99.90
52107;DHT22;38105;52.968;5.974;2023-11-19T02:41:03;10.90;99.90
52107;DHT22;38105;52.968;5.974;2023-11-19T02:43:30;10.90;99.90
52107;DHT22;38105;52.968;5.974;2023-11-19T02:45:57;10.40;99.90
52107;DHT22;38105;52.968;5.974;2023-11-19T02:48:22;10.40;99.90
52107;DHT22;38105;52.968;5.974;2023-11-19T02:50:48;10.50;99.90
52107;DHT22;38105;52.968;5.974;2023-11-19T02:53:13;10.50;99.90
52107;DHT22;38105;52.968;5.974;2023-11-19T02:55:39;11.10;99.90
52107;DHT22;38105;52.968;5.974;2023-11-19T02:58:06;10.60;99.90
52107;DHT22;38105;52.968;5.974;2023-11-19T03:00:45;10.60;99.90
52107;DHT22;38105;52.968;5.974;2023-11-19T03:03:17;10.40;99.90
52107;DHT22;38105;52.968;5.974;2023-11-19T03:05:48;10.50;99.90
52107;DHT22;38105;52.968;5.974;2023-11-19T03:08:14;10.30;99.90
52107;DHT22;38105;52.968;5.974;2023-11-19T03:10:41;11.10;99.90
52107;DHT22;38105;52.968;5.974;2023-11-19T03:13:08;10.40;99.90
52107;DHT22;38105;52.968;5.974;2023-11-19T03:15:37;11.20;99.90
52107;DHT22;38105;52.968;5.974;2023-11-19T03:18:02;10.80;99.90
52107;DHT22;38105;52.968;5.974;2023-11-19T03:20:28;11.20;99.90
52107;DHT22;38105;52.968;5.974;2023-11-19T03:22:55;10.70;99.90
52107;DHT22;38105;52.968;5.974;2023-11-19T03:25:24;10.50;99.90
52107;DHT22;38105;52.968;5.974;2023-11-19T03:27:50;10.50;99.90
52107;DHT22;38105;52.968;5.974;2023-11-19T03:30:16;11.10;99.90
52107;DHT22;38105;52.968;5.974;2023-11-19T03:32:42;10.70;99.90
52107;DHT22;38105;52.968;5.974;2023-11-19T03:35:08;10.90;99.90
52107;DHT22;38105;52.968;5.974;2023-11-19T03:37:34;11.10;99.90
52107;DHT22;38105;52.968;5.974;2023-11-19T03:40:01;11.00;99.90
52107;DHT22;38105;52.968;5.974;2023-11-19T03:42:26;10.30;99.90
52107;DHT22;38105;52.968;5.974;2023-11-19T03:44:52;10.30;99.90
52107;DHT22;38105;52.968;5.974;2023-11-19T03:47:18;10.30;99.90
52107;DHT22;38105;52.968;5.974;2023-11-19T03:49:47;10.40;99.90
52107;DHT22;38105;52.968;5.974;2023-11-19T03:52:12;10.80;99.90
52107;DHT22;38105;52.968;5.974;2023-11-19T03:54:38;10.60;99.90
52107;DHT22;38105;52.968;5.974;2023-11-19T03:57:03;10.30;99.90
52107;DHT22;38105;52.968;5.974;2023-11-19T03:59:29;10.40;99.90
52107;DHT22;38105;52.968;5.974;2023-11-19T04:01:55;11.10;99.90
52107;DHT22;38105;52.968;5.974;2023-11-19T04:04:22;11.10;99.90
52107;DHT22;38105;52.968;5.974;2023-11-19T04:06:47;10.30;99.90
52107;DHT22;38105;52.968;5.974;2023-11-19T04:09:13;11.00;99.90
52107;DHT22;38105;52.968;5.974;2023-11-19T04:11:38;11.00;99.90
52107;DHT22;38105;52.968;5.974;2023-11-19T04:14:05;10.90;99.90
52107;DHT22;38105;52.968;5.974;2023-11-19T04:16:31;10.40;99.90
52107;DHT22;38105;52.968;5.974;2023-11-19T04:18:56;10.30;99.90
52107;DHT22;38105;52.968;5.974;2023-11-19T04:21:22;10.40;99.90
52107;DHT22;38105;52.968;5.974;2023-11-19T04:23:49;11.00;99.90
52107;DHT22;38105;52.968;5.974;2023-11-19T04:26:14;11.00;99.90
52107;DHT22;38105;52.968;5.974;2023-11-19T04:28:41;10.90;99.90
52107;DHT22;38105;52.968;5.974;2023-11-19T04:31:06;10.60;99.90
52107;DHT22;38105;52.968;5.974;2023-11-19T04:33:32;10.50;99.90
52107;DHT22;38105;52.968;5.974;2023-11-19T04:35:57;10.80;99.90
52107;DHT22;38105;52.968;5.974;2023-11-19T04:38:23;11.00;99.90
52107;DHT22;38105;52.968;5.974;2023-11-19T04:40:49;10.40;99.90
52107;DHT22;38105;52.968;5.974;2023-11-19T04:43:14;10.40;99.90
52107;DHT22;38105;52.968;5.974;2023-11-19T04:45:40;10.40;99.90
52107;DHT22;38105;52.968;5.974;2023-11-19T04:48:06;10.40;99.90
52107;DHT22;38105;52.968;5.974;2023-11-19T04:50:31;10.80;99.90
52107;DHT22;38105;52.968;5.974;2023-11-19T04:52:57;10.90;99.90
52107;DHT22;38105;52.968;5.974;2023-11-19T04:55:23;10.50;99.90
52107;DHT22;38105;52.968;5.974;2023-11-19T04:57:48;10.60;99.90
52107;DHT22;38105;52.968;5.974;2023-11-19T05:00:14;10.90;99.90
52107;DHT22;38105;52.968;5.974;2023-11-19T05:02:39;10.50;99.90
52107;DHT22;38105;52.968;5.974;2023-11-19T05:05:05;10.90;99.90
52107;DHT22;38105;52.968;5.974;2023-11-19T05:07:30;10.50;99.90
52107;DHT22;38105;52.968;5.974;2023-11-19T05:09:56;10.50;99.90
52107;DHT22;38105;52.968;5.974;2023-11-19T05:12:22;10.40;99.90
52107;DHT22;38105;52.968;5.974;2023-11-19T05:14:48;10.60;99.90
52107;DHT22;38105;52.968;5.974;2023-11-19T05:17:19;10.60;99.90
52107;DHT22;38105;52.968;5.974;2023-11-19T05:19:44;10.90;99.90
52107;DHT22;38105;52.968;5.974;2023-11-19T05:22:10;10.90;99.90
52107;DHT22;38105;52.968;5.974;2023-11-19T05:24:35;10.80;99.90
52107;DHT22;38105;52.968;5.974;2023-11-19T05:27:01;10.40;99.90
52107;DHT22;38105;52.968;5.974;2023-11-19T05:29:27;10.50;99.90
52107;DHT22;38105;52.968;5.974;2023-11-19T05:31:53;10.70;99.90
52107;DHT22;38105;52.968;5.974;2023-11-19T05:34:20;10.70;99.90
52107;DHT22;38105;52.968;5.974;2023-11-19T05:36:46;10.80;99.90
52107;DHT22;38105;52.968;5.974;2023-11-19T05:39:12;10.50;99.90
52107;DHT22;38105;52.968;5.974;2023-11-19T05:41:37;10.80;99.90
52107;DHT22;38105;52.968;5.974;2023-11-19T05:44:03;10.40;99.90
52107;DHT22;38105;52.968;5.974;2023-11-19T05:46:28;10.50;99.90
52107;DHT22;38105;52.968;5.974;2023-11-19T05:48:54;10.60;99.90
52107;DHT22;38105;52.968;5.974;2023-11-19T05:51:19;10.50;99.90
52107;DHT22;38105;52.968;5.974;2023-11-19T05:53:45;10.40;99.90
52107;DHT22;38105;52.968;5.974;2023-11-19T05:56:15;10.30;99.90
52107;DHT22;38105;52.968;5.974;2023-11-19T05:58:46;10.60;99.90
52107;DHT22;38105;52.968;5.974;2023-11-19T06:01:13;10.60;99.90
52107;DHT22;38105;52.968;5.974;2023-11-19T06:03:39;10.60;99.90
52107;DHT22;38105;52.968;5.974;2023-11-19T06:06:04;10.70;99.90
52107;DHT22;38105;52.968;5.974;2023-11-19T06:08:30;10.40;99.90
52107;DHT22;38105;52.968;5.974;2023-11-19T06:10:56;10.40;99.90
52107;DHT22;38105;52.968;5.974;2023-11-19T06:13:22;10.40;99.90
52107;DHT22;38105;52.968;5.974;2023-11-19T06:15:48;10.30;99.90
52107;DHT22;38105;52.968;5.974;2023-11-19T06:18:13;10.70;99.90
52107;DHT22;38105;52.968;5.974;2023-11-19T06:20:40;10.50;99.90
52107;DHT22;38105;52.968;5.974;2023-11-19T06:23:05;10.70;99.90
52107;DHT22;38105;52.968;5.974;2023-11-19T06:25:32;10.60;99.90
52107;DHT22;38105;52.968;5.974;2023-11-19T06:27:58;10.40;99.90
52107;DHT22;38105;52.968;5.974;2023-11-19T06:30:24;10.60;99.90
52107;DHT22;38105;52.968;5.974;2023-11-19T06:32:51;10.40;99.90
52107;DHT22;38105;52.968;5.974;2023-11-19T06:35:16;10.40;99.90
52107;DHT22;38105;52.968;5.974;2023-11-19T06:37:42;10.60;99.90
52107;DHT22;38105;52.968;5.974;2023-11-19T06:40:07;10.20;99.90
52107;DHT22;38105;52.968;5.974;2023-11-19T06:42:34;10.50;99.90
52107;DHT22;38105;52.968;5.974;2023-11-19T06:45:00;10.40;99.90
52107;DHT22;38105;52.968;5.974;2023-11-19T06:47:26;10.20;99.90
52107;DHT22;38105;52.968;5.974;2023-11-19T06:49:55;10.40;99.90
52107;DHT22;38105;52.968;5.974;2023-11-19T06:52:20;10.20;99.90
52107;DHT22;38105;52.968;5.974;2023-11-19T06:54:46;10.40;99.90
52107;DHT22;38105;52.968;5.974;2023-11-19T06:57:12;10.50;99.90
52107;DHT22;38105;52.968;5.974;2023-11-19T06:59:38;10.30;99.90
52107;DHT22;38105;52.968;5.974;2023-11-19T07:02:04;10.50;99.90
52107;DHT22;38105;52.968;5.974;2023-11-19T07:04:30;10.30;99.90
52107;DHT22;38105;52.968;5.974;2023-11-19T07:06:56;10.30;99.90
52107;DHT22;38105;52.968;5.974;2023-11-19T07:09:22;10.40;99.90
52107;DHT22;38105;52.968;5.974;2023-11-19T07:11:48;10.60;99.90
52107;DHT22;38105;52.968;5.974;2023-11-19T07:14:17;10.50;99.90
52107;DHT22;38105;52.968;5.974;2023-11-19T07:16:43;10.50;99.90
52107;DHT22;38105;52.968;5.974;2023-11-19T07:19:08;10.60;99.90
52107;DHT22;38105;52.968;5.974;2023-11-19T07:21:34;10.40;99.90
52107;DHT22;38105;52.968;5.974;2023-11-19T07:24:00;10.60;99.90
52107;DHT22;38105;52.968;5.974;2023-11-19T07:26:27;10.40;99.90
52107;DHT22;38105;52.968;5.974;2023-11-19T07:28:53;10.50;99.90
52107;DHT22;38105;52.968;5.974;2023-11-19T07:31:18;10.50;99.90
52107;DHT22;38105;52.968;5.974;2023-11-19T07:33:45;10.50;99.90
52107;DHT22;38105;52.968;5.974;2023-11-19T07:36:11;10.40;99.90
52107;DHT22;38105;52.968;5.974;2023-11-19T07:38:37;10.60;99.90
52107;DHT22;38105;52.968;5.974;2023-11-19T07:41:02;10.40;99.90
52107;DHT22;38105;52.968;5.974;2023-11-19T07:43:28;10.50;99.90
52107;DHT22;38105;52.968;5.974;2023-11-19T07:45:53;10.40;99.90
52107;DHT22;38105;52.968;5.974;2023-11-19T07:48:19;10.50;99.90
52107;DHT22;38105;52.968;5.974;2023-11-19T07:50:49;10.50;99.90
52107;DHT22;38105;52.968;5.974;2023-11-19T07:53:19;10.50;99.90
52107;DHT22;38105;52.968;5.974;2023-11-19T07:55:45;10.50;99.90
52107;DHT22;38105;52.968;5.974;2023-11-19T07:58:10;10.60;99.90
52107;DHT22;38105;52.968;5.974;2023-11-19T08:00:36;10.60;99.90
52107;DHT22;38105;52.968;5.974;2023-11-19T08:03:03;10.70;99.90
52107;DHT22;38105;52.968;5.974;2023-11-19T08:05:28;10.50;99.90
52107;DHT22;38105;52.968;5.974;2023-11-19T08:07:54;10.60;99.90
52107;DHT22;38105;52.968;5.974;2023-11-19T08:10:19;10.70;99.90
52107;DHT22;38105;52.968;5.974;2023-11-19T08:12:45;10.80;99.90
52107;DHT22;38105;52.968;5.974;2023-11-19T08:15:11;10.80;99.90
52107;DHT22;38105;52.968;5.974;2023-11-19T08:17:36;10.80;99.90
52107;DHT22;38105;52.968;5.974;2023-11-19T08:20:02;10.70;99.90
52107;DHT22;38105;52.968;5.974;2023-11-19T08:22:30;10.80;99.90
52107;DHT22;38105;52.968;5.974;2023-11-19T08:24:55;10.90;99.90
52107;DHT22;38105;52.968;5.974;2023-11-19T08:27:21;10.80;99.90
52107;DHT22;38105;52.968;5.974;2023-11-19T08:29:53;10.90;99.90
52107;DHT22;38105;52.968;5.974;2023-11-19T08:32:20;10.70;99.90
52107;DHT22;38105;52.968;5.974;2023-11-19T08:34:46;10.70;99.90
52107;DHT22;38105;52.968;5.974;2023-11-19T08:37:12;10.70;99.90
52107;DHT22;38105;52.968;5.974;2023-11-19T08:39:38;10.70;99.90
52107;DHT22;38105;52.968;5.974;2023-11-19T08:42:04;10.70;99.90
52107;DHT22;38105;52.968;5.974;2023-11-19T08:44:29;10.90;99.90
52107;DHT22;38105;52.968;5.974;2023-11-19T08:46:55;10.80;99.90
52107;DHT22;38105;52.968;5.974;2023-11-19T08:49:20;11.10;99.90
52107;DHT22;38105;52.968;5.974;2023-11-19T08:51:46;11.20;99.90
52107;DHT22;38105;52.968;5.974;2023-11-19T08:54:12;11.60;99.90
52107;DHT22;38105;52.968;5.974;2023-11-19T08:56:38;11.80;99.90
52107;DHT22;38105;52.968;5.974;2023-11-19T08:59:04;11.90;99.90
52107;DHT22;38105;52.968;5.974;2023-11-19T09:01:30;11.80;99.90
52107;DHT22;38105;52.968;5.974;2023-11-19T09:03:55;11.60;99.90
52107;DHT22;38105;52.968;5.974;2023-11-19T09:06:21;11.80;99.90
52107;DHT22;38105;52.968;5.974;2023-11-19T09:08:46;11.70;99.90
52107;DHT22;38105;52.968;5.974;2023-11-19T09:11:12;11.80;99.90
52107;DHT22;38105;52.968;5.974;2023-11-19T09:13:38;11.80;99.90
52107;DHT22;38105;52.968;5.974;2023-11-19T09:16:03;11.90;99.90
52107;DHT22;38105;52.968;5.974;2023-11-19T09:18:32;11.90;99.90
52107;DHT22;38105;52.968;5.974;2023-11-19T09:20:58;11.90;99.90
52107;DHT22;38105;52.968;5.974;2023-11-19T09:23:23;11.80;99.90
52107;DHT22;38105;52.968;5.974;2023-11-19T09:25:50;11.80;99.90
52107;DHT22;38105;52.968;5.974;2023-11-19T09:28:16;11.80;99.90
52107;DHT22;38105;52.968;5.974;2023-11-19T09:30:41;11.80;99.90
52107;DHT22;38105;52.968;5.974;2023-11-19T09:33:07;11.70;99.90
52107;DHT22;38105;52.968;5.974;2023-11-19T09:35:32;11.70;99.90
52107;DHT22;38105;52.968;5.974;2023-11-19T09:37:58;11.70;99.90
52107;DHT22;38105;52.968;5.974;2023-11-19T09:40:24;11.60;99.90
52107;DHT22;38105;52.968;5.974;2023-11-19T09:42:50;11.60;99.90
52107;DHT22;38105;52.968;5.974;2023-11-19T09:45:16;11.60;99.90
52107;DHT22;38105;52.968;5.974;2023-11-19T09:47:43;11.60;99.90
52107;DHT22;38105;52.968;5.974;2023-11-19T09:50:12;11.50;99.90
52107;DHT22;38105;52.968;5.974;2023-11-19T09:52:39;11.60;99.90
52107;DHT22;38105;52.968;5.974;2023-11-19T09:55:05;11.70;99.90
52107;DHT22;38105;52.968;5.974;2023-11-19T09:57:30;11.70;99.90
52107;DHT22;38105;52.968;5.974;2023-11-19T09:59:57;11.60;99.90
52107;DHT22;38105;52.968;5.974;2023-11-19T10:02:23;11.50;99.90
52107;DHT22;38105;52.968;5.974;2023-11-19T10:04:49;11.50;99.90
52107;DHT22;38105;52.968;5.974;2023-11-19T10:07:15;11.50;99.90
52107;DHT22;38105;52.968;5.974;2023-11-19T10:09:40;11.50;99.90
52107;DHT22;38105;52.968;5.974;2023-11-19T10:12:06;11.40;99.90
52107;DHT22;38105;52.968;5.974;2023-11-19T10:14:32;11.40;99.90
52107;DHT22;38105;52.968;5.974;2023-11-19T10:17:00;11.40;99.90
52107;DHT22;38105;52.968;5.974;2023-11-19T10:19:29;11.30;99.90
52107;DHT22;38105;52.968;5.974;2023-11-19T10:21:54;11.40;99.90
52107;DHT22;38105;52.968;5.974;2023-11-19T10:24:32;11.40;99.90
52107;DHT22;38105;52.968;5.974;2023-11-19T10:27:01;11.40;99.90
52107;DHT22;38105;52.968;5.974;2023-11-19T10:29:31;11.40;99.90
52107;DHT22;38105;52.968;5.974;2023-11-19T10:31:57;11.50;99.90
52107;DHT22;38105;52.968;5.974;2023-11-19T10:34:26;11.50;99.90
52107;DHT22;38105;52.968;5.974;2023-11-19T10:36:52;11.50;99.90
52107;DHT22;38105;52.968;5.974;2023-11-19T10:39:17;11.60;99.90
52107;DHT22;38105;52.968;5.974;2023-11-19T10:41:43;11.50;99.90
52107;DHT22;38105;52.968;5.974;2023-11-19T10:44:09;11.60;99.90
52107;DHT22;38105;52.968;5.974;2023-11-19T10:46:38;11.60;99.90
52107;DHT22;38105;52.968;5.974;2023-11-19T10:49:05;11.70;99.90
52107;DHT22;38105;52.968;5.974;2023-11-19T10:51:31;11.90;99.90
52107;DHT22;38105;52.968;5.974;2023-11-19T10:53:58;11.90;99.90
52107;DHT22;38105;52.968;5.974;2023-11-19T10:56:27;11.90;99.90
52107;DHT22;38105;52.968;5.974;2023-11-19T10:58:53;11.90;99.90
52107;DHT22;38105;52.968;5.974;2023-11-19T11:01:20;12.00;99.90
52107;DHT22;38105;52.968;5.974;2023-11-19T11:03:48;12.00;99.90
52107;DHT22;38105;52.968;5.974;2023-11-19T11:06:16;12.00;99.90
52107;DHT22;38105;52.968;5.974;2023-11-19T11:08:42;12.00;99.90
52107;DHT22;38105;52.968;5.974;2023-11-19T11:11:08;12.10;99.90
52107;DHT22;38105;52.968;5.974;2023-11-19T11:13:35;12.10;99.90
52107;DHT22;38105;52.968;5.974;2023-11-19T11:16:02;12.10;99.90
52107;DHT22;38105;52.968;5.974;2023-11-19T11:18:29;12.10;99.90
52107;DHT22;38105;52.968;5.974;2023-11-19T11:21:00;12.10;99.90
52107;DHT22;38105;52.968;5.974;2023-11-19T11:36:36;12.10;99.90
52107;DHT22;38105;52.968;5.974;2023-11-19T11:39:04;12.10;99.90
52107;DHT22;38105;52.968;5.974;2023-11-19T11:41:33;12.20;99.90
52107;DHT22;38105;52.968;5.974;2023-11-19T11:43:58;12.20;99.90
52107;DHT22;38105;52.968;5.974;2023-11-19T11:48:59;12.30;99.90
52107;DHT22;38105;52.968;5.974;2023-11-19T11:57:01;12.20;99.90
52107;DHT22;38105;52.968;5.974;2023-11-19T11:59:29;12.30;99.90
52107;DHT22;38105;52.968;5.974;2023-11-19T12:01:57;12.20;99.90
52107;DHT22;38105;52.968;5.974;2023-11-19T12:04:25;12.30;99.90
52107;DHT22;38105;52.968;5.974;2023-11-19T12:09:28;12.30;99.90
52107;DHT22;38105;52.968;5.974;2023-11-19T12:12:07;12.30;99.90
52107;DHT22;38105;52.968;5.974;2023-11-19T12:20:01;12.50;99.90
52107;DHT22;38105;52.968;5.974;2023-11-19T12:22:27;12.40;99.90
52107;DHT22;38105;52.968;5.974;2023-11-19T12:24:55;12.50;99.90
52107;DHT22;38105;52.968;5.974;2023-11-19T12:27:21;12.40;99.90
52107;DHT22;38105;52.968;5.974;2023-11-19T12:29:51;12.50;99.90
52107;DHT22;38105;52.968;5.974;2023-11-19T12:32:17;12.50;99.90
52107;DHT22;38105;52.968;5.974;2023-11-19T12:34:42;12.50;99.90
52107;DHT22;38105;52.968;5.974;2023-11-19T12:37:09;12.40;99.90
52107;DHT22;38105;52.968;5.974;2023-11-19T12:39:35;12.40;99.90
52107;DHT22;38105;52.968;5.974;2023-11-19T12:42:00;12.40;99.90
52107;DHT22;38105;52.968;5.974;2023-11-19T12:44:26;12.30;99.90
52107;DHT22;38105;52.968;5.974;2023-11-19T12:49:27;12.20;99.90
52107;DHT22;38105;52.968;5.974;2023-11-19T12:51:52;12.20;99.90
52107;DHT22;38105;52.968;5.974;2023-11-19T12:54:18;12.20;99.90
52107;DHT22;38105;52.968;5.974;2023-11-19T12:56:53;12.20;99.90
52107;DHT22;38105;52.968;5.974;2023-11-19T12:59:18;12.20;99.90
52107;DHT22;38105;52.968;5.974;2023-11-19T13:01:56;12.30;99.90
52107;DHT22;38105;52.968;5.974;2023-11-19T13:04:22;12.30;99.90
52107;DHT22;38105;52.968;5.974;2023-11-19T13:06:49;12.30;99.90
52107;DHT22;38105;52.968;5.974;2023-11-19T13:09:22;12.30;99.90
52107;DHT22;38105;52.968;5.974;2023-11-19T13:11:47;12.20;99.90
52107;DHT22;38105;52.968;5.974;2023-11-19T13:14:13;12.20;99.90
52107;DHT22;38105;52.968;5.974;2023-11-19T13:16:39;12.20;99.90
52107;DHT22;38105;52.968;5.974;2023-11-19T13:19:04;12.20;99.90
52107;DHT22;38105;52.968;5.974;2023-11-19T13:21:30;12.20;99.90
52107;DHT22;38105;52.968;5.974;2023-11-19T13:23:56;12.20;99.90
52107;DHT22;38105;52.968;5.974;2023-11-19T13:26:22;12.30;99.90
52107;DHT22;38105;52.968;5.974;2023-11-19T13:28:47;12.20;99.90
52107;DHT22;38105;52.968;5.974;2023-11-19T13:31:13;12.30;99.90
52107;DHT22;38105;52.968;5.974;2023-11-19T13:33:39;12.30;99.90
52107;DHT22;38105;52.968;5.974;2023-11-19T13:36:05;12.20;99.90
52107;DHT22;38105;52.968;5.974;2023-11-19T13:38:32;12.20;99.90
52107;DHT22;38105;52.968;5.974;2023-11-19T13:40:58;12.20;99.90
52107;DHT22;38105;52.968;5.974;2023-11-19T13:43:24;12.20;99.90
52107;DHT22;38105;52.968;5.974;2023-11-19T13:45:50;12.20;99.90
52107;DHT22;38105;52.968;5.974;2023-11-19T13:48:16;12.20;99.90
52107;DHT22;38105;52.968;5.974;2023-11-19T13:50:42;12.20;99.90
52107;DHT22;38105;52.968;5.974;2023-11-19T13:53:07;12.20;99.90
52107;DHT22;38105;52.968;5.974;2023-11-19T13:55:33;12.10;99.90
52107;DHT22;38105;52.968;5.974;2023-11-19T13:57:58;12.20;99.90
52107;DHT22;38105;52.968;5.974;2023-11-19T14:00:24;12.10;99.90
52107;DHT22;38105;52.968;5.974;2023-11-19T14:02:49;12.10;99.90
52107;DHT22;38105;52.968;5.974;2023-11-19T14:05:15;12.00;99.90
52107;DHT22;38105;52.968;5.974;2023-11-19T14:07:43;12.00;99.90
52107;DHT22;38105;52.968;5.974;2023-11-19T14:10:09;12.00;99.90
52107;DHT22;38105;52.968;5.974;2023-11-19T14:12:36;11.90;99.90
52107;DHT22;38105;52.968;5.974;2023-11-19T14:15:03;11.80;99.90
52107;DHT22;38105;52.968;5.974;2023-11-19T14:17:31;11.80;99.90
52107;DHT22;38105;52.968;5.974;2023-11-19T14:19:56;11.80;99.90
52107;DHT22;38105;52.968;5.974;2023-11-19T14:22:22;11.80;99.90
52107;DHT22;38105;52.968;5.974;2023-11-19T14:24:47;11.70;99.90
52107;DHT22;38105;52.968;5.974;2023-11-19T14:27:13;11.80;99.90
52107;DHT22;38105;52.968;5.974;2023-11-19T14:29:38;11.80;99.90
52107;DHT22;38105;52.968;5.974;2023-11-19T14:32:05;11.80;99.90
52107;DHT22;38105;52.968;5.974;2023-11-19T14:34:31;11.80;99.90
52107;DHT22;38105;52.968;5.974;2023-11-19T14:36:58;11.70;99.90
52107;DHT22;38105;52.968;5.974;2023-11-19T14:39:23;11.80;99.90
52107;DHT22;38105;52.968;5.974;2023-11-19T14:41:49;11.80;99.90
52107;DHT22;38105;52.968;5.974;2023-11-19T14:44:16;11.80;99.90
52107;DHT22;38105;52.968;5.974;2023-11-19T14:46:41;11.70;99.90
52107;DHT22;38105;52.968;5.974;2023-11-19T14:49:07;11.60;99.90
52107;DHT22;38105;52.968;5.974;2023-11-19T14:51:36;11.60;99.90
52107;DHT22;38105;52.968;5.974;2023-11-19T14:54:03;11.60;99.90
52107;DHT22;38105;52.968;5.974;2023-11-19T14:56:29;11.50;99.90
52107;DHT22;38105;52.968;5.974;2023-11-19T14:58:54;11.50;99.90
52107;DHT22;38105;52.968;5.974;2023-11-19T15:01:20;11.40;99.90
52107;DHT22;38105;52.968;5.974;2023-11-19T15:03:45;11.40;99.90
52107;DHT22;38105;52.968;5.974;2023-11-19T15:06:11;11.30;99.90
52107;DHT22;38105;52.968;5.974;2023-11-19T15:08:36;11.40;99.90
52107;DHT22;38105;52.968;5.974;2023-11-19T15:11:02;11.40;99.90
52107;DHT22;38105;52.968;5.974;2023-11-19T15:13:30;11.20;99.90
52107;DHT22;38105;52.968;5.974;2023-11-19T15:15:56;11.30;99.90
52107;DHT22;38105;52.968;5.974;2023-11-19T15:18:22;11.20;99.90
52107;DHT22;38105;52.968;5.974;2023-11-19T15:20:48;11.20;99.90
52107;DHT22;38105;52.968;5.974;2023-11-19T15:23:14;11.40;99.90
52107;DHT22;38105;52.968;5.974;2023-11-19T15:25:40;11.20;99.90
52107;DHT22;38105;52.968;5.974;2023-11-19T15:28:06;11.10;99.90
52107;DHT22;38105;52.968;5.974;2023-11-19T15:30:31;11.20;99.90
52107;DHT22;38105;52.968;5.974;2023-11-19T15:32:57;11.20;99.90
52107;DHT22;38105;52.968;5.974;2023-11-19T15:35:22;11.10;99.90
52107;DHT22;38105;52.968;5.974;2023-11-19T15:37:48;11.00;99.90
52107;DHT22;38105;52.968;5.974;2023-11-19T15:40:14;11.00;99.90
52107;DHT22;38105;52.968;5.974;2023-11-19T15:42:39;10.90;99.90
52107;DHT22;38105;52.968;5.974;2023-11-19T15:45:05;10.90;99.90
52107;DHT22;38105;52.968;5.974;2023-11-19T15:47:32;11.00;99.90
52107;DHT22;38105;52.968;5.974;2023-11-19T15:49:59;11.00;99.90
52107;DHT22;38105;52.968;5.974;2023-11-19T15:52:24;10.80;99.90
52107;DHT22;38105;52.968;5.974;2023-11-19T15:54:52;11.00;99.90
52107;DHT22;38105;52.968;5.974;2023-11-19T15:57:17;10.90;99.90
52107;DHT22;38105;52.968;5.974;2023-11-19T15:59:43;11.00;99.90